KORH

Worcester Regional Airport

Worcester, Massachusetts, USA
KORH 212335Z 2200/2224 30019G32KT P6SM BKN060 FM220100 30019G32KT P6SM SCT200 FM221200 29017G25KT P6SM SKC FM221800 29012KT P6SM SKC FM222200 28007KT P6SM SKC
Issued Valid From Valid To
Jan-21 @ 23:35 UTC
(38 minutes ago)
Jan-22 @ 00:00 UTC
(13 minutes ago)
Jan-23 @ 00:00 UTC
(in 24 hours)
Jan-22 @ 00:00 to Jan-22 @ 01:00
KORH 212335Z 2200/2224 30019G32KT P6SM BKN060
Wind Visibility Clouds
300° at 19 knots
 Gusting to 32 knots
Greater than 6 miles
  • Broken at 6,000' AGL
From Jan-22 @ 01:00 to Jan-22 @ 12:00
FM220100 30019G32KT P6SM SCT200
Wind Visibility Clouds
300° at 19 knots
 Gusting to 32 knots
Greater than 6 miles
  • Scattered at 20,000' AGL
From Jan-22 @ 12:00 to Jan-22 @ 18:00
FM221200 29017G25KT P6SM SKC
Wind Visibility Clouds
290° at 17 knots
 Gusting to 25 knots
Greater than 6 miles
  • Clear skies
From Jan-22 @ 18:00 to Jan-22 @ 22:00
FM221800 29012KT P6SM SKC
Wind Visibility Clouds
290° at 12 knots Greater than 6 miles
  • Clear skies
From Jan-22 @ 22:00 to Jan-23 @ 00:00
FM222200 28007KT P6SM SKC
Wind Visibility Clouds
280° at 7 knots Greater than 6 miles
  • Clear skies
KORH 212335Z 2200/2224 30019G32KT P6SM BKN060 FM220100 30019G32KT P6SM SCT200 FM221200 29017G25KT P6SM SKC FM221800 29012KT P6SM SKC FM222200 28007KT P6SM SKC
Issued Jan-21 @ 23:35 UTC
(38 minutes ago)
Valid From Jan-22 @ 00:00 UTC
(13 minutes ago)
Valid To Jan-23 @ 00:00 UTC
(in 24 hours)
Jan-22 @ 00:00 - Jan-22 @ 01:00
Wind Visibility
300° at 19 knots
 Gusting to 32 knots
Greater than 6 miles
Clouds
  • Broken at 6,000' AGL
From Jan-22 @ 01:00 - Jan-22 @ 12:00
Wind Visibility
300° at 19 knots
 Gusting to 32 knots
Greater than 6 miles
Clouds
  • Scattered at 20,000' AGL
From Jan-22 @ 12:00 - Jan-22 @ 18:00
Wind Visibility
290° at 17 knots
 Gusting to 25 knots
Greater than 6 miles
Clouds
  • Clear skies
From Jan-22 @ 18:00 - Jan-22 @ 22:00
Wind Visibility
290° at 12 knots Greater than 6 miles
Clouds
  • Clear skies
From Jan-22 @ 22:00 - Jan-23 @ 00:00
Wind Visibility
280° at 7 knots Greater than 6 miles
Clouds
  • Clear skies